createdAt,value
2018-09-25T00:01:19.931Z,74.28
2018-09-25T00:03:54.218Z,65.96
2018-09-25T00:06:29.614Z,68.47
2018-09-25T00:09:04.073Z,60.52
2018-09-25T00:11:38.409Z,63.47
2018-09-25T00:14:12.851Z,76.42
2018-09-25T00:16:47.149Z,77.05
2018-09-25T00:19:21.853Z,80.13
2018-09-25T00:21:56.222Z,78.43
2018-09-25T00:24:30.549Z,70.10
2018-09-25T00:27:06.326Z,76.09
2018-09-25T00:29:40.327Z,70.27
2018-09-25T00:32:15.579Z,76.32
2018-09-25T00:34:50.000Z,77.78
2018-09-25T00:37:25.142Z,79.66
2018-09-25T00:40:00.263Z,81.44
2018-09-25T00:42:34.904Z,81.36
2018-09-25T00:45:11.014Z,81.58
2018-09-25T00:47:46.440Z,77.25
2018-09-25T00:50:20.590Z,79.34
2018-09-25T00:52:54.856Z,80.16
2018-09-25T00:55:29.159Z,83.05
2018-09-25T00:58:04.290Z,81.20
2018-09-25T01:00:38.923Z,78.74
2018-09-25T01:03:13.278Z,80.79
2018-09-25T01:05:47.632Z,81.69
2018-09-25T01:08:22.175Z,81.60
2018-09-25T01:10:57.079Z,80.77
2018-09-25T01:13:31.120Z,84.53
2018-09-25T01:16:05.682Z,83.53
2018-09-25T01:18:39.725Z,80.11
2018-09-25T01:21:14.161Z,80.18
2018-09-25T01:23:48.176Z,81.01
2018-09-25T01:26:22.868Z,85.54
2018-09-25T01:28:58.534Z,82.11
2018-09-25T01:31:32.748Z,80.08
2018-09-25T01:34:06.965Z,85.81
2018-09-25T01:36:42.163Z,88.81
2018-09-25T01:39:16.582Z,90.37
2018-09-25T01:41:50.903Z,90.99
2018-09-25T01:44:25.011Z,93.20
2018-09-25T01:46:59.923Z,93.50
2018-09-25T01:49:34.153Z,93.79
2018-09-25T01:52:08.649Z,95.14
2018-09-25T01:54:43.298Z,95.99
2018-09-25T01:57:17.772Z,95.37
2018-09-25T01:59:51.751Z,95.44
2018-09-25T02:02:25.877Z,97.58
2018-09-25T02:05:00.063Z,95.64
2018-09-25T02:07:34.047Z,95.58
2018-09-25T02:10:08.397Z,96.30
2018-09-25T02:12:43.210Z,97.70
2018-09-25T02:15:17.753Z,97.20
2018-09-25T02:17:52.167Z,100.00
2018-09-25T02:20:26.452Z,97.91
2018-09-25T02:23:00.635Z,99.64
2018-09-25T02:25:35.017Z,100.00
2018-09-25T02:28:09.302Z,99.15
2018-09-25T02:30:43.899Z,92.82
2018-09-25T02:33:18.156Z,90.26
2018-09-25T02:35:52.568Z,98.73
2018-09-25T02:38:27.152Z,100.00
2018-09-25T02:41:01.639Z,100.00
2018-09-25T02:43:36.770Z,99.18
2018-09-25T02:46:10.852Z,99.60
2018-09-25T02:48:45.009Z,99.51
2018-09-25T02:51:19.125Z,99.17
2018-09-25T02:53:53.629Z,100.00
2018-09-25T02:56:27.918Z,100.00
2018-09-25T02:59:02.298Z,100.00
2018-09-25T03:01:36.604Z,100.00
2018-09-25T03:04:10.892Z,100.00
2018-09-25T03:06:45.372Z,100.00
2018-09-25T03:09:19.640Z,100.00
2018-09-25T03:11:54.141Z,100.00
2018-09-25T03:14:28.601Z,100.00
2018-09-25T03:17:03.045Z,100.00
2018-09-25T03:19:37.163Z,100.00
2018-09-25T03:22:11.592Z,100.00
2018-09-25T03:24:45.952Z,100.00
2018-09-25T03:27:20.270Z,100.00
2018-09-25T03:29:54.760Z,100.00
2018-09-25T03:32:28.896Z,100.00
2018-09-25T03:35:03.450Z,100.00
2018-09-25T03:37:37.696Z,100.00
2018-09-25T03:40:11.864Z,100.00
2018-09-25T03:42:46.180Z,100.00
2018-09-25T03:45:20.655Z,100.00
2018-09-25T03:47:54.881Z,100.00
2018-09-25T03:50:28.969Z,100.00
2018-09-25T03:53:03.057Z,100.00
2018-09-25T03:55:37.403Z,100.00
2018-09-25T03:58:12.213Z,100.00
2018-09-25T04:00:46.347Z,100.00
2018-09-25T04:03:20.354Z,100.00
2018-09-25T04:05:54.858Z,100.00
2018-09-25T04:08:29.223Z,100.00
2018-09-25T04:11:03.262Z,100.00
2018-09-25T04:13:37.280Z,100.00
2018-09-25T04:16:11.811Z,100.00
2018-09-25T04:18:46.421Z,100.00
2018-09-25T04:21:20.768Z,100.00
2018-09-25T04:23:55.226Z,100.00
2018-09-25T04:26:29.802Z,100.00
2018-09-25T04:29:05.050Z,100.00
2018-09-25T04:31:39.547Z,100.00
2018-09-25T04:34:14.325Z,100.00
2018-09-25T04:36:49.192Z,100.00
2018-09-25T04:39:23.425Z,100.00
2018-09-25T04:41:57.706Z,100.00
2018-09-25T04:44:31.933Z,100.00
2018-09-25T04:47:06.470Z,100.00
2018-09-25T04:49:40.852Z,100.00
2018-09-25T04:52:15.616Z,100.00
2018-09-25T04:54:50.164Z,100.00
2018-09-25T04:57:24.648Z,100.00
2018-09-25T04:59:59.039Z,100.00
2018-09-25T05:02:33.649Z,100.00
2018-09-25T05:05:09.556Z,100.00
2018-09-25T05:07:43.770Z,100.00
2018-09-25T05:10:17.962Z,100.00
2018-09-25T05:12:53.428Z,100.00
2018-09-25T05:15:27.871Z,100.00
2018-09-25T05:18:02.341Z,100.00
2018-09-25T05:20:37.087Z,100.00
2018-09-25T05:23:11.624Z,100.00
2018-09-25T05:25:46.269Z,100.00
2018-09-25T05:28:20.956Z,100.00
2018-09-25T05:30:55.784Z,100.00
2018-09-25T05:33:31.226Z,100.00
2018-09-25T05:36:05.424Z,100.00
2018-09-25T05:38:39.544Z,100.00
2018-09-25T05:41:13.923Z,100.00
2018-09-25T05:43:49.231Z,100.00
2018-09-25T05:46:24.064Z,100.00
2018-09-25T05:48:58.583Z,100.00
2018-09-25T05:51:34.098Z,100.00
2018-09-25T05:54:08.465Z,100.00
2018-09-25T05:56:42.790Z,100.00
2018-09-25T05:59:22.951Z,100.00
2018-09-25T06:01:59.646Z,100.00
2018-09-25T06:04:34.216Z,100.00
2018-09-25T06:07:08.722Z,100.00
2018-09-25T06:09:44.040Z,100.00
2018-09-25T06:12:18.341Z,100.00
2018-09-25T06:14:52.515Z,100.00
2018-09-25T06:17:27.281Z,100.00
2018-09-25T06:20:01.751Z,100.00
2018-09-25T06:22:37.308Z,100.00
2018-09-25T06:25:13.513Z,100.00
2018-09-25T06:27:47.759Z,100.00
2018-09-25T06:30:22.946Z,100.00
2018-09-25T06:32:57.206Z,100.00
2018-09-25T06:35:31.637Z,100.00
2018-09-25T06:38:07.271Z,100.00
2018-09-25T06:40:41.736Z,100.00
2018-09-25T06:43:16.176Z,100.00
2018-09-25T06:45:52.047Z,100.00
2018-09-25T06:48:26.407Z,100.00
2018-09-25T06:51:00.913Z,100.00
2018-09-25T06:53:35.421Z,100.00
2018-09-25T06:56:09.972Z,100.00
2018-09-25T06:58:44.317Z,100.00
2018-09-25T07:01:18.922Z,100.00
2018-09-25T07:03:53.452Z,100.00
2018-09-25T07:06:27.976Z,100.00
2018-09-25T07:09:02.576Z,100.00
2018-09-25T07:11:36.908Z,100.00
2018-09-25T07:14:11.233Z,100.00
2018-09-25T07:16:46.538Z,100.00
2018-09-25T07:19:21.577Z,99.69
2018-09-25T07:21:55.978Z,99.84
2018-09-25T07:24:31.160Z,99.18
2018-09-25T07:27:05.595Z,100.00
2018-09-25T07:29:40.076Z,100.00
2018-09-25T07:32:14.642Z,100.00
2018-09-25T07:34:48.957Z,100.00
2018-09-25T07:37:24.675Z,100.00
2018-09-25T07:39:58.772Z,100.00
2018-09-25T07:42:33.210Z,100.00
2018-09-25T07:45:07.554Z,100.00
2018-09-25T07:47:42.477Z,99.49
2018-09-25T07:50:16.831Z,100.00
2018-09-25T07:52:51.295Z,99.67
2018-09-25T07:55:25.890Z,98.80
2018-09-25T07:58:00.363Z,97.99
2018-09-25T08:00:34.940Z,97.75
2018-09-25T08:03:09.355Z,99.65
2018-09-25T08:05:43.861Z,98.99
2018-09-25T08:08:18.180Z,98.31
2018-09-25T08:10:52.578Z,94.03
2018-09-25T08:13:26.839Z,91.96
2018-09-25T08:16:01.682Z,93.32
2018-09-25T08:18:36.037Z,93.40
2018-09-25T08:21:10.517Z,94.65
2018-09-25T08:23:44.890Z,90.79
2018-09-25T08:26:19.340Z,89.46
2018-09-25T08:28:53.812Z,89.12
2018-09-25T08:31:28.348Z,87.33
2018-09-25T08:34:03.103Z,88.73
2018-09-25T08:36:37.812Z,92.46
2018-09-25T08:39:14.878Z,91.83
2018-09-25T08:41:49.407Z,89.49
2018-09-25T08:44:23.901Z,87.93
2018-09-25T08:46:58.695Z,87.20
2018-09-25T08:49:33.353Z,85.42
2018-09-25T08:52:07.681Z,85.26
2018-09-25T08:54:42.684Z,84.44
2018-09-25T08:57:17.547Z,85.60
2018-09-25T08:59:52.194Z,80.25
2018-09-25T09:02:27.207Z,81.63
2018-09-25T09:05:01.875Z,81.67
2018-09-25T09:07:37.005Z,80.03
2018-09-25T09:10:11.705Z,77.50
2018-09-25T09:12:46.774Z,77.22
2018-09-25T09:15:22.407Z,66.44
2018-09-25T09:17:57.907Z,71.53
2018-09-25T09:20:32.929Z,65.96
2018-09-25T09:23:07.342Z,62.49
2018-09-25T09:25:42.684Z,70.31
2018-09-25T09:28:17.575Z,66.33
2018-09-25T09:30:52.266Z,69.10
2018-09-25T09:33:27.420Z,64.95
2018-09-25T09:36:02.022Z,65.00
2018-09-25T09:38:36.597Z,68.43
2018-09-25T09:41:11.470Z,68.43
2018-09-25T09:43:46.085Z,64.64
2018-09-25T09:46:21.066Z,64.00
2018-09-25T09:48:55.614Z,61.87
2018-09-25T09:51:31.343Z,60.12
2018-09-25T09:54:06.955Z,65.23
2018-09-25T09:56:42.199Z,61.32
2018-09-25T09:59:17.121Z,59.09
2018-09-25T10:01:55.044Z,54.63
2018-09-25T10:04:32.308Z,54.36
2018-09-25T10:07:06.740Z,56.31
2018-09-25T10:09:41.125Z,50.59
2018-09-25T10:12:16.311Z,58.29
2018-09-25T10:14:52.215Z,57.06
2018-09-25T10:17:27.215Z,53.68
2018-09-25T10:20:03.468Z,57.64
2018-09-25T10:22:44.965Z,64.02
2018-09-25T10:25:19.590Z,48.70
2018-09-25T10:27:54.191Z,49.61
2018-09-25T10:30:28.518Z,46.28
2018-09-25T10:33:03.119Z,41.67
2018-09-25T10:35:38.884Z,43.04
2018-09-25T10:38:14.219Z,45.17
2018-09-25T10:40:48.973Z,49.54
2018-09-25T10:43:24.821Z,49.46
2018-09-25T10:45:59.526Z,43.38
2018-09-25T10:48:33.994Z,40.73
2018-09-25T10:51:08.643Z,36.26
2018-09-25T10:53:43.801Z,43.91
2018-09-25T10:56:19.191Z,41.32
2018-09-25T10:58:54.141Z,42.12
2018-09-25T11:01:28.399Z,39.26
2018-09-25T11:04:02.493Z,44.83
2018-09-25T11:06:36.540Z,46.53
2018-09-25T11:09:13.882Z,40.80
2018-09-25T11:11:48.531Z,38.03
2018-09-25T11:14:22.730Z,38.45
2018-09-25T11:16:56.624Z,37.42
2018-09-25T11:19:30.692Z,35.45
2018-09-25T11:22:04.819Z,36.17
2018-09-25T11:24:38.879Z,39.70
2018-09-25T11:27:12.968Z,39.71
2018-09-25T11:29:47.144Z,39.72
2018-09-25T11:32:21.031Z,41.41
2018-09-25T11:35:02.275Z,41.52
2018-09-25T11:37:36.278Z,41.35
2018-09-25T11:40:10.390Z,37.06
2018-09-25T11:42:44.518Z,38.32
2018-09-25T11:45:18.737Z,37.36
2018-09-25T11:47:52.718Z,36.11
2018-09-25T11:50:26.721Z,35.85
2018-09-25T11:53:01.286Z,39.19
2018-09-25T11:55:35.291Z,32.10
2018-09-25T11:58:09.342Z,38.87
2018-09-25T12:00:43.448Z,42.47
2018-09-25T12:03:17.848Z,39.29
2018-09-25T12:05:51.952Z,40.48
2018-09-25T12:08:26.120Z,36.37
2018-09-25T12:11:00.225Z,33.54
2018-09-25T12:13:35.091Z,35.78
2018-09-25T12:16:09.207Z,33.62
2018-09-25T12:18:43.406Z,35.51
2018-09-25T12:21:17.766Z,32.70
2018-09-25T12:23:51.823Z,32.29
2018-09-25T12:26:25.959Z,35.34
2018-09-25T12:29:00.113Z,39.06
2018-09-25T12:31:34.312Z,34.14
2018-09-25T12:34:08.423Z,36.15
2018-09-25T12:36:42.566Z,32.50
2018-09-25T12:39:16.786Z,34.24
2018-09-25T12:41:50.887Z,37.29
2018-09-25T12:44:25.055Z,36.31
2018-09-25T12:46:59.228Z,40.05
2018-09-25T12:49:35.645Z,39.26
2018-09-25T12:52:09.713Z,36.69
2018-09-25T12:54:45.018Z,36.91
2018-09-25T12:57:19.209Z,37.65
2018-09-25T12:59:53.365Z,34.48
2018-09-25T13:02:27.655Z,36.91
2018-09-25T13:05:01.873Z,36.70
2018-09-25T13:07:36.258Z,36.63
2018-09-25T13:10:10.803Z,36.08
2018-09-25T13:12:45.202Z,35.23
2018-09-25T13:15:19.428Z,35.15
2018-09-25T13:17:53.875Z,35.51
2018-09-25T13:20:28.012Z,36.34
2018-09-25T13:23:02.175Z,37.25
2018-09-25T13:25:36.187Z,34.03
2018-09-25T13:28:10.236Z,36.19
2018-09-25T13:30:44.421Z,35.39
2018-09-25T13:33:18.628Z,34.31
2018-09-25T13:35:52.766Z,31.63
2018-09-25T13:38:26.894Z,33.03
2018-09-25T13:41:00.931Z,34.23
2018-09-25T13:43:35.158Z,34.92
2018-09-25T13:46:09.120Z,36.16
2018-09-25T13:48:43.960Z,32.26
2018-09-25T13:51:18.679Z,36.75
2018-09-25T13:53:52.928Z,33.34
2018-09-25T13:56:27.169Z,31.87
2018-09-25T13:59:04.669Z,34.71
2018-09-25T14:01:38.874Z,37.00
2018-09-25T14:04:13.037Z,39.36
2018-09-25T14:06:47.146Z,36.09
2018-09-25T14:09:21.216Z,39.57
2018-09-25T14:11:55.554Z,38.96
2018-09-25T14:14:29.699Z,36.66
2018-09-25T14:17:03.908Z,38.79
2018-09-25T14:19:38.302Z,39.31
2018-09-25T14:22:12.923Z,38.27
2018-09-25T14:24:47.168Z,38.85
2018-09-25T14:27:21.616Z,40.60
2018-09-25T14:29:55.692Z,42.08
2018-09-25T14:32:29.900Z,43.64
2018-09-25T14:35:04.007Z,43.87
2018-09-25T14:37:38.003Z,41.75
2018-09-25T14:40:11.988Z,37.43
2018-09-25T14:42:46.068Z,41.68
2018-09-25T14:45:20.163Z,45.94
2018-09-25T14:47:54.297Z,47.80
2018-09-25T14:50:28.505Z,46.74
2018-09-25T14:53:02.601Z,48.80
2018-09-25T14:55:36.851Z,50.96
2018-09-25T14:58:11.152Z,50.60
2018-09-25T15:00:45.430Z,49.79
2018-09-25T15:03:19.820Z,50.38
2018-09-25T15:05:54.243Z,48.71
2018-09-25T15:08:28.523Z,51.46
2018-09-25T15:11:02.779Z,48.64
2018-09-25T15:13:36.967Z,50.43
2018-09-25T15:16:11.110Z,50.40
2018-09-25T15:18:45.192Z,50.67
2018-09-25T15:21:21.645Z,50.84
2018-09-25T15:23:55.745Z,52.34
2018-09-25T15:26:29.990Z,51.63
2018-09-25T15:29:04.045Z,50.03
2018-09-25T15:31:38.205Z,49.47
2018-09-25T15:34:12.313Z,49.13
2018-09-25T15:36:46.520Z,52.93
2018-09-25T15:39:20.776Z,54.42
2018-09-25T15:41:54.976Z,54.51
2018-09-25T15:44:29.121Z,54.01
2018-09-25T15:47:03.126Z,56.73
2018-09-25T15:49:37.277Z,57.80
2018-09-25T15:52:11.937Z,57.30
2018-09-25T15:54:46.198Z,57.97
2018-09-25T15:57:20.309Z,56.68
2018-09-25T15:59:54.475Z,52.39
2018-09-25T16:02:28.497Z,51.79
2018-09-25T16:05:02.521Z,54.38
2018-09-25T16:07:36.595Z,50.34
2018-09-25T16:10:10.856Z,51.99
2018-09-25T16:12:44.966Z,52.16
2018-09-25T16:15:19.922Z,53.41
2018-09-25T16:17:54.004Z,57.96
2018-09-25T16:20:29.079Z,58.60
2018-09-25T16:23:03.180Z,59.23
2018-09-25T16:25:37.373Z,59.64
2018-09-25T16:28:11.895Z,62.63
2018-09-25T16:30:46.243Z,62.88
2018-09-25T16:33:20.450Z,61.46
2018-09-25T16:35:55.798Z,63.16
2018-09-25T16:38:30.215Z,65.77
2018-09-25T16:41:04.383Z,65.25
2018-09-25T16:43:39.121Z,66.98
2018-09-25T16:46:13.359Z,67.90
2018-09-25T16:48:47.593Z,70.37
2018-09-25T16:51:21.749Z,69.46
2018-09-25T16:53:56.025Z,69.26
2018-09-25T16:56:30.300Z,67.76
2018-09-25T16:59:04.441Z,66.79
2018-09-25T17:01:38.560Z,67.29
2018-09-25T17:04:12.647Z,67.98
2018-09-25T17:06:47.728Z,69.91
2018-09-25T17:09:21.777Z,69.72
2018-09-25T17:11:58.022Z,71.33
2018-09-25T17:14:32.416Z,71.79
2018-09-25T17:17:06.785Z,72.83
2018-09-25T17:19:40.900Z,72.72
2018-09-25T17:22:15.482Z,72.38
2018-09-25T17:24:50.195Z,71.85
2018-09-25T17:27:24.419Z,73.09
2018-09-25T17:29:59.152Z,74.28
2018-09-25T17:32:33.544Z,74.30
2018-09-25T17:35:07.948Z,73.54
2018-09-25T17:37:43.009Z,75.02
2018-09-25T17:40:17.593Z,74.12
2018-09-25T17:42:52.295Z,74.94
2018-09-25T17:45:26.793Z,75.91
2018-09-25T17:48:01.557Z,75.25
2018-09-25T17:50:35.787Z,72.83
2018-09-25T17:53:11.228Z,75.86
2018-09-25T17:55:45.608Z,74.35
2018-09-25T17:58:20.031Z,73.85
2018-09-25T18:00:54.056Z,72.21
2018-09-25T18:03:28.554Z,72.53
2018-09-25T18:06:02.864Z,73.63
2018-09-25T18:08:37.120Z,73.95
2018-09-25T18:11:11.481Z,75.98
2018-09-25T18:13:46.431Z,74.89
2018-09-25T18:16:20.829Z,75.33
2018-09-25T18:18:55.718Z,74.81
2018-09-25T18:21:30.197Z,74.80
2018-09-25T18:24:05.314Z,75.47
2018-09-25T18:26:40.543Z,76.14
2018-09-25T18:29:15.712Z,76.68
2018-09-25T18:31:50.877Z,76.02
2018-09-25T18:34:25.470Z,77.17
2018-09-25T18:37:03.064Z,78.85
2018-09-25T18:39:37.451Z,80.04
2018-09-25T18:42:12.616Z,80.55
2018-09-25T18:44:48.629Z,81.41
2018-09-25T18:47:26.049Z,79.13
2018-09-25T18:50:01.722Z,78.74
2018-09-25T18:52:36.009Z,79.08
2018-09-25T18:55:10.490Z,79.13
2018-09-25T18:57:46.264Z,82.47
2018-09-25T19:00:20.518Z,83.25
2018-09-25T19:02:54.958Z,82.97
2018-09-25T19:05:29.289Z,82.69
2018-09-25T19:08:03.757Z,81.84
2018-09-25T19:10:37.990Z,81.10
2018-09-25T19:13:12.297Z,82.00
2018-09-25T19:15:47.948Z,80.49
2018-09-25T19:18:23.533Z,79.28
2018-09-25T19:20:58.240Z,80.87
2018-09-25T19:23:34.605Z,83.06
2018-09-25T19:26:09.198Z,82.60
2018-09-25T19:28:44.555Z,81.65
2018-09-25T19:31:19.990Z,81.87
2018-09-25T19:33:54.905Z,83.18
2018-09-25T19:36:29.621Z,82.49
2018-09-25T19:39:03.888Z,82.70
2018-09-25T19:41:38.558Z,83.71
2018-09-25T19:44:12.848Z,83.84
2018-09-25T19:46:47.022Z,83.74
2018-09-25T19:49:21.216Z,83.28
2018-09-25T19:51:56.128Z,85.36
2018-09-25T19:54:30.329Z,86.03
2018-09-25T19:57:05.292Z,87.35
2018-09-25T19:59:39.714Z,86.70
2018-09-25T20:02:13.725Z,86.47
2018-09-25T20:04:48.027Z,86.69
2018-09-25T20:07:22.623Z,86.03
2018-09-25T20:09:58.226Z,87.11
2018-09-25T20:12:32.689Z,87.46
2018-09-25T20:15:06.740Z,87.24
2018-09-25T20:17:40.930Z,86.86
2018-09-25T20:20:15.071Z,87.90
2018-09-25T20:22:49.568Z,89.06
2018-09-25T20:25:23.687Z,89.58
2018-09-25T20:27:58.100Z,87.89
2018-09-25T20:30:32.250Z,87.55
2018-09-25T20:33:06.228Z,88.41
2018-09-25T20:35:40.321Z,89.47
2018-09-25T20:38:14.334Z,90.71
2018-09-25T20:40:48.379Z,88.75
2018-09-25T20:43:22.634Z,88.49
2018-09-25T20:45:56.685Z,88.26
2018-09-25T20:48:31.696Z,88.12
2018-09-25T20:51:05.682Z,87.63
2018-09-25T20:53:39.866Z,88.11
2018-09-25T20:56:14.671Z,88.26
2018-09-25T20:58:48.935Z,90.53
2018-09-25T21:01:23.037Z,89.34
2018-09-25T21:03:57.120Z,89.13
2018-09-25T21:06:31.395Z,88.86
2018-09-25T21:09:05.559Z,91.14
2018-09-25T21:11:39.610Z,90.12
2018-09-25T21:14:13.860Z,89.15
2018-09-25T21:16:49.010Z,88.78
2018-09-25T21:19:23.138Z,89.86
2018-09-25T21:21:57.162Z,89.39
2018-09-25T21:24:31.158Z,89.84
2018-09-25T21:27:05.235Z,89.87
2018-09-25T21:29:39.290Z,90.61
2018-09-25T21:32:13.405Z,90.18
2018-09-25T21:34:47.533Z,89.97
2018-09-25T21:37:21.610Z,90.10
2018-09-25T21:39:55.953Z,90.15
2018-09-25T21:42:29.986Z,90.19
2018-09-25T21:45:04.039Z,91.01
2018-09-25T21:47:38.029Z,91.03
2018-09-25T21:50:12.235Z,90.69
2018-09-25T21:52:46.342Z,90.65
2018-09-25T21:55:20.488Z,91.72
2018-09-25T21:57:54.538Z,91.59
2018-09-25T22:00:28.481Z,91.50
2018-09-25T22:03:02.672Z,90.36
2018-09-25T22:05:36.826Z,90.68
2018-09-25T22:08:10.905Z,91.09
2018-09-25T22:10:45.081Z,92.07
2018-09-25T22:13:19.297Z,92.08
2018-09-25T22:15:53.499Z,91.49
2018-09-25T22:18:27.610Z,91.70
2018-09-25T22:21:01.622Z,92.52
2018-09-25T22:23:35.667Z,92.54
2018-09-25T22:26:09.736Z,92.52
2018-09-25T22:28:43.778Z,92.31
2018-09-25T22:31:17.982Z,92.33
2018-09-25T22:33:52.801Z,92.94
2018-09-25T22:36:28.753Z,93.34
2018-09-25T22:39:02.865Z,93.02
2018-09-25T22:41:37.416Z,93.28
2018-09-25T22:44:11.507Z,93.44
2018-09-25T22:46:45.486Z,93.35
2018-09-25T22:49:20.202Z,93.48
2018-09-25T22:51:54.456Z,94.28
2018-09-25T22:54:28.976Z,94.22
2018-09-25T22:57:03.499Z,93.74
2018-09-25T22:59:38.324Z,94.03
2018-09-25T23:02:12.723Z,94.58
2018-09-25T23:04:47.084Z,93.59
2018-09-25T23:07:21.370Z,93.72
2018-09-25T23:09:55.753Z,93.17
2018-09-25T23:12:29.977Z,93.31
2018-09-25T23:15:04.468Z,93.71
2018-09-25T23:17:38.766Z,93.76
2018-09-25T23:20:13.008Z,93.99
2018-09-25T23:22:47.245Z,94.82
2018-09-25T23:25:21.627Z,94.96
2018-09-25T23:27:56.126Z,94.78
2018-09-25T23:30:30.209Z,94.23
2018-09-25T23:33:04.527Z,93.84
2018-09-25T23:35:38.473Z,94.94
2018-09-25T23:38:12.692Z,94.92
2018-09-25T23:40:48.649Z,94.32
2018-09-25T23:43:33.679Z,93.95
2018-09-25T23:46:13.173Z,93.81
2018-09-25T23:48:47.015Z,93.95
2018-09-25T23:53:23.820Z,94.00
2018-09-25T23:56:25.612Z,94.62
2018-09-25T23:59:03.965Z,94.94
